AirNav   Phillips 66 Aviation Fuel
 
 979 users online  

07A Franklin Field Airport
Union Springs, Alabama, USA

GOING TO UNION SPRINGS?


FAA INFORMATION EFFECTIVE 12 SEPTEMBER 2019

Location

FAA Identifier: 07A
Lat/Long: 32-09-58.3310N 085-48-35.1950W
32-09.972183N 085-48.586583W
32.1662031,-85.8097764
(estimated)
Elevation: 300 ft. / 91.4 m (surveyed)
Variation: 01W (1985)
From city: 5 miles W of UNION SPRINGS, AL
Time zone: UTC -5 (UTC -6 during Standard Time)
Zip code: 36089

Airport Operations

Airport use: Open to the public
Activation date: 05/1963
Control tower: no
ARTCC: ATLANTA CENTER
FSS: ANNISTON FLIGHT SERVICE STATION
NOTAMs facility: ANB (NOTAM-D service available)
Attendance: UNATNDD
Wind indicator: lighted
Segmented circle: yes
Lights: ACTVT MIRL RWY 14/32 - CTAF.
Beacon: white-green (lighted land airport)
Operates sunset to sunrise.

Airport Communications

CTAF/UNICOM: 122.8

Nearby radio navigation aids

VOR radial/distance  VOR name  Freq  Var
TGEr198/20.4TUSKEGEE VOR/DME117.3002E
MGMr094/26.1MONTGOMERY VORTAC112.1003E
EUFr289/36.9EUFAULA VORTAC109.2002E

 
NDB name  Hdg/Dist  Freq  Var  ID
BLOOD041/25.136504WTOI - --- ..

Airport Services

Fuel available: 100LL
Parking: tiedowns
Airframe service: NONE
Powerplant service: NONE
Bottled oxygen: NONE
Bulk oxygen: NONE

Runway Information

Runway 14/32

Dimensions: 3660 x 80 ft. / 1116 x 24 m
Surface: asphalt, in fair condition
Weight bearing capacity: 
Single wheel: 15.0
Runway edge lights: medium intensity
RUNWAY 14  RUNWAY 32
Latitude: 32-10.199905N32-09.744467N
Longitude: 085-48.819817W085-48.353383W
Elevation: 292.5 ft.299.8 ft.
Traffic pattern: leftleft
Markings: basic, in good conditionbasic, in good condition
Runway end identifier lights: no
Touchdown point: yes, no lightsyes, no lights
Obstructions: 74 ft. tree, 2187 ft. from runway, 105 ft. right of centerline, 26:1 slope to clear102 ft. tree, 1452 ft. from runway, 32 ft. right of centerline, 12:1 slope to clear

Airport Ownership and Management from official FAA records

Ownership: Publicly-owned
Owner: BULLOCK COUNTY
PO BOX 352
UNION SPRINGS, AL 36089
Phone 334-738-3839
Manager: FRANKLIN FLD ARPT AUTHORITY
POB 522
UNION SPRINGS, AL 36089
Phone 334-750-2109
334-738-3883.

Airport Operational Statistics

Aircraft based on the field: 11
Single engine airplanes: 11
    
Aircraft operations: avg 125/week *
88% transient general aviation
12% local general aviation
* for 12-month period ending 07 February 2020

Additional Remarks

DEER ON & INVOF ARPT.
FOR CD CTC MONTGOMERY APCH AT 334-284-4575. WHEN APCH CLSD FOR CD CTC ATLANTA ARTCC AT 770-210-7692.

Instrument Procedures

There are no published instrument procedures at 07A.

Some nearby airports with instrument procedures:

06A - Moton Field Municipal Airport (19 nm N)
KTOI - Troy Municipal Airport at N Kenneth Campbell Field (21 nm SW)
11A - Clayton Municipal Airport (24 nm SE)
KMGM - Montgomery Regional Airport (Dannelly Field) (31 nm W)
KMXF - Maxwell Air Force Base (31 nm NW)
 
Loc | Ops | Rwys | IFR | FBO | Links
Com | Nav | Svcs | Stats | Notes
Area around 07A (Franklin Field Airport)
 
Road maps at: MapQuest Bing Google
 
Aerial photo
WARNING: Photo may not be current or correct
Aerial photo of 07A (Franklin Field Airport)
Photo courtesy of Goodwyn, Mills and Cawood, Inc.; Southern Resources Mapping
Taken in September 2015
looking north.

Do you have a better or more recent aerial photo of Franklin Field Airport that you would like to share? If so, please send us your photo.

 
Sectional chart

 
Airport distance calculator
Flying to Franklin Field Airport? Find the distance to fly.

From to 07A

Sunrise and sunset
Times for 21-Sep-2019
 Local
(UTC-5)
 Zulu
(UTC)
Morning civil twilight06:0711:07
Sunrise06:3211:32
Sunset18:4123:41
Evening civil twilight19:0500:05

Current date and time
Zulu (UTC)  21-Sep-2019 20:34:43
Local (UTC-5)  21-Sep-2019 15:34:43
 
METAR
KTOI 
22nm SW 
211953Z AUTO 07010KT 10SM SCT070 32/14 A3018 RMK AO2 SLP212 T03170144
KMXF 
31nm NW 
212019Z 16009KT 10SM SCT070 33/14 A3015 RMK SLP211
KMGM 
31nm W 
211953Z 10008KT 10SM BKN070 31/15 A3017 RMK AO2 SLP215 T03060150
KAUO 
34nm NE 
211956Z AUTO 12006KT 10SM CLR A3022 RMK AO2 SLPNO FZRANO $
K1A9 
39nm NW 
212015Z AUTO 13006KT 10SM BKN070 31/15 A3016 RMK AO2 T03100149
KLSF 
42nm E 
211958Z AUTO 05010KT 10SM FEW210 33/13 A3016 RMK AO2 WSHFT 55 SLP216
TAF
KTOI 
22nm SW 
211720Z 2118/2218 10007KT P6SM FEW060 FM220000 00000KT P6SM SKC FM221500 12006KT P6SM FEW040
NOTAMs
Click for the latest NOTAMs
NOTAMs are issued by the DoD/FAA and will open in a separate window not controlled by AirNav.

 

 
 

FBO, Fuel Providers, and Aircraft Ground Support

  
 Business Name 
 
 Contact 
 
 Services / Description 
 
Fuel Prices
 
Comments
  
Franklin Field Airport Authority 334-750-2109
[web site]
[email]
Aviation fuel, Aircraft parking (ramp or tiedown), Hangar leasing / sales, Pilots lounge / snooze room, Internet access, Restrooms

More info about Franklin Field Airport Authority
independent
100LL
SS $4.05 
 Updated 09-Sep-2019
 
   1 read write
SS=Self service
Update Fuel Prices
 

Would you like to see your business listed on this page?

 If your business provides an interesting product or service to pilots, flight crews, aircraft, or users of the Franklin Field Airport, you should consider listing it here.  To start the listing process, click on the button below
 
Add a business
 

Other Pages about Franklin Field Airport

www.franklinfieldairport.com
 
Update a link
 
Copyright © AirNav, LLC. All rights reserved. Privacy Policy  Contact